Time;durP1;ratioP1;P1;durP2;ratioP2;P2;SDS_P1;SDS_P2;PMS_P1;PMS_P2;Temp;Humidity;BMP_temperature;BMP_pressure;BME280_temperature;BME280_humidity;BME280_pressure;Samples;Min_cycle;Max_cycle;Signal;HPM_P1;HPM_P2
2022/08/28 00:01:14;;;;;;;5.05;2.00;;;;;;;;;;5011728;28;20066;-76
2022/08/28 00:03:41;;;;;;;4.68;1.98;;;;;;;;;;5012408;28;20172;-75
2022/08/28 00:06:09;;;;;;;5.43;1.80;;;;;;;;;;5011667;28;20046;-76
2022/08/28 00:08:35;;;;;;;7.65;1.70;;;;;;;;;;5011818;28;20509;-75
2022/08/28 00:11:00;;;;;;;4.43;1.65;;;;;;;;;;5016374;28;20121;-74
2022/08/28 00:13:26;;;;;;;8.13;2.08;;;;;;;;;;5013064;28;20518;-77
2022/08/28 00:15:59;;;;;;;4.15;1.67;;;;;;;;;;5011146;28;20046;-74
2022/08/28 00:18:27;;;;;;;8.75;2.00;;;;;;;;;;5011554;28;20054;-75
2022/08/28 00:20:53;;;;;;;7.80;1.88;;;;;;;;;;4997370;28;20133;-75
2022/08/28 00:23:20;;;;;;;7.82;1.95;;;;;;;;;;4997796;28;20061;-75
2022/08/28 00:25:46;;;;;;;8.90;2.10;;;;;;;;;;4997879;28;20042;-73
2022/08/28 00:28:13;;;;;;;6.82;1.60;;;;;;;;;;4997927;28;20054;-75
2022/08/28 00:30:47;;;;;;;4.47;1.70;;;;;;;;;;4997962;28;20112;-77
2022/08/28 00:33:21;;;;;;;6.55;1.85;;;;;;;;;;4998543;28;20077;-75
2022/08/28 00:35:47;;;;;;;5.83;2.27;;;;;;;;;;4999059;28;20061;-76
2022/08/28 00:38:14;;;;;;;6.65;2.00;;;;;;;;;;5018414;28;20037;-76
2022/08/28 00:40:43;;;;;;;4.97;1.90;;;;;;;;;;5019282;28;20111;-77
2022/08/28 00:43:21;;;;;;;6.32;2.25;;;;;;;;;;5020433;28;20517;-75
2022/08/28 00:45:47;;;;;;;7.82;2.10;;;;;;;;;;5023396;28;20105;-79
2022/08/28 00:48:12;;;;;;;6.00;1.90;;;;;;;;;;5021484;28;20070;-75
2022/08/28 00:53:23;;;;;;;4.70;1.70;;;;;;;;;;5018939;28;20054;-78
2022/08/28 00:55:49;;;;;;;6.57;2.38;;;;;;;;;;5020432;28;20054;-76
2022/08/28 00:58:15;;;;;;;4.30;2.13;;;;;;;;;;5003370;28;20057;-75
2022/08/28 01:00:42;;;;;;;3.78;1.90;;;;;;;;;;5018403;28;20046;-76
2022/08/28 01:03:08;;;;;;;5.45;1.90;;;;;;;;;;5020635;28;20499;-75
2022/08/28 01:05:35;;;;;;;6.13;1.80;;;;;;;;;;5020210;28;20057;-75
2022/08/28 01:08:03;;;;;;;7.38;1.70;;;;;;;;;;5018506;28;20496;-78
2022/08/28 01:10:33;;;;;;;9.60;1.73;;;;;;;;;;5013572;28;20081;-75
2022/08/28 01:13:00;;;;;;;6.18;1.83;;;;;;;;;;4998468;28;20077;-76
2022/08/28 01:15:33;;;;;;;5.43;1.80;;;;;;;;;;4998528;28;20125;-77
2022/08/28 01:18:04;;;;;;;3.93;1.90;;;;;;;;;;4999004;28;20412;-78
2022/08/28 01:20:33;;;;;;;6.72;1.77;;;;;;;;;;4998815;28;20819;-73
2022/08/28 01:23:23;;;;;;;4.95;1.90;;;;;;;;;;4998728;28;20169;-75
2022/08/28 01:25:49;;;;;;;6.72;1.92;;;;;;;;;;4998398;28;20064;-74
2022/08/28 01:28:15;;;;;;;6.32;2.13;;;;;;;;;;4999114;28;20051;-76
2022/08/28 01:30:45;;;;;;;6.53;2.15;;;;;;;;;;4997940;28;20050;-74
2022/08/28 01:33:13;;;;;;;8.25;3.40;;;;;;;;;;4994456;28;20050;-75
2022/08/28 01:35:43;;;;;;;10.13;3.20;;;;;;;;;;4995263;28;20042;-73
2022/08/28 01:38:08;;;;;;;9.25;3.63;;;;;;;;;;4993433;28;20594;-73
2022/08/28 01:40:38;;;;;;;10.02;4.15;;;;;;;;;;4976004;28;20042;-74
2022/08/28 01:43:11;;;;;;;12.68;4.10;;;;;;;;;;4994935;28;20137;-75
2022/08/28 01:45:38;;;;;;;8.18;3.65;;;;;;;;;;4995514;28;20085;-75
2022/08/28 01:48:06;;;;;;;7.63;3.78;;;;;;;;;;4994556;28;20461;-74
2022/08/28 01:50:33;;;;;;;9.70;3.80;;;;;;;;;;4994294;28;20046;-74
2022/08/28 01:53:01;;;;;;;8.88;3.60;;;;;;;;;;4998107;28;20053;-75
2022/08/28 01:55:27;;;;;;;12.00;4.00;;;;;;;;;;5013910;28;20710;-73
2022/08/28 01:57:54;;;;;;;8.35;3.50;;;;;;;;;;5014231;28;20060;-73
2022/08/28 02:00:25;;;;;;;9.07;3.67;;;;;;;;;;5013543;28;20049;-75
2022/08/28 02:02:51;;;;;;;12.48;3.92;;;;;;;;;;4999452;28;20084;-75
2022/08/28 02:05:18;;;;;;;7.50;3.17;;;;;;;;;;4999271;28;20061;-74
2022/08/28 02:07:44;;;;;;;9.85;3.30;;;;;;;;;;4997875;28;20582;-74
2022/08/28 02:10:10;;;;;;;10.23;3.78;;;;;;;;;;4997809;28;20057;-75
2022/08/28 02:12:37;;;;;;;10.73;3.72;;;;;;;;;;4994840;28;20446;-75
2022/08/28 02:15:06;;;;;;;7.13;3.47;;;;;;;;;;4995312;28;20108;-74
2022/08/28 02:17:32;;;;;;;8.38;3.22;;;;;;;;;;4994635;28;20066;-74
2022/08/28 02:19:58;;;;;;;7.60;3.10;;;;;;;;;;4995284;28;20058;-76
2022/08/28 02:22:25;;;;;;;7.75;3.33;;;;;;;;;;4996383;28;20069;-75
2022/08/28 02:24:52;;;;;;;10.13;2.90;;;;;;;;;;4995143;28;20290;-75
2022/08/28 02:27:18;;;;;;;6.97;3.20;;;;;;;;;;4994868;28;20042;-73
2022/08/28 02:29:44;;;;;;;7.32;3.45;;;;;;;;;;4993491;28;20042;-73
2022/08/28 02:32:11;;;;;;;6.28;3.08;;;;;;;;;;4993709;28;20570;-73
2022/08/28 02:34:37;;;;;;;11.50;3.00;;;;;;;;;;5013828;28;20057;-74
2022/08/28 02:37:07;;;;;;;7.93;3.10;;;;;;;;;;5012443;28;20091;-74
2022/08/28 02:39:33;;;;;;;8.65;3.40;;;;;;;;;;5013576;28;20133;-73
2022/08/28 02:41:59;;;;;;;7.47;3.47;;;;;;;;;;5012357;28;20054;-73
2022/08/28 02:44:25;;;;;;;8.05;3.28;;;;;;;;;;5011743;28;20077;-73
2022/08/28 02:46:51;;;;;;;7.65;3.35;;;;;;;;;;5012186;28;20435;-73
2022/08/28 02:49:17;;;;;;;9.23;3.20;;;;;;;;;;5013844;28;20134;-75
2022/08/28 02:51:44;;;;;;;8.57;3.03;;;;;;;;;;5015521;28;20052;-74
2022/08/28 02:54:09;;;;;;;6.43;2.70;;;;;;;;;;4996126;28;20313;-74
2022/08/28 02:56:35;;;;;;;7.65;3.10;;;;;;;;;;5014389;28;20411;-76
2022/08/28 02:59:01;;;;;;;6.13;2.58;;;;;;;;;;5014292;28;20050;-74
2022/08/28 03:01:27;;;;;;;6.32;2.47;;;;;;;;;;5011324;28;20117;-73
2022/08/28 03:03:53;;;;;;;8.88;2.75;;;;;;;;;;4994306;28;20042;-72
2022/08/28 03:06:19;;;;;;;6.43;2.70;;;;;;;;;;5012267;28;20057;-74
2022/08/28 03:08:45;;;;;;;5.88;2.50;;;;;;;;;;5012519;28;20078;-73
2022/08/28 03:11:11;;;;;;;5.63;2.60;;;;;;;;;;5013111;28;20088;-76
2022/08/28 03:13:37;;;;;;;7.18;2.90;;;;;;;;;;5015924;28;20125;-72
2022/08/28 03:16:03;;;;;;;5.88;2.80;;;;;;;;;;5013950;28;20505;-74
2022/08/28 03:18:31;;;;;;;8.25;2.35;;;;;;;;;;5011699;28;20488;-74
2022/08/28 03:20:58;;;;;;;8.55;2.33;;;;;;;;;;4992417;28;20058;-73
2022/08/28 03:23:27;;;;;;;8.25;2.53;;;;;;;;;;4991060;28;20130;-73
2022/08/28 03:25:57;;;;;;;8.10;2.70;;;;;;;;;;4991862;28;20042;-71
2022/08/28 03:28:25;;;;;;;5.72;2.53;;;;;;;;;;5011313;28;20125;-72
2022/08/28 03:30:51;;;;;;;8.52;2.53;;;;;;;;;;5011265;28;20081;-74
2022/08/28 03:33:18;;;;;;;7.38;2.78;;;;;;;;;;5013491;28;20058;-73
2022/08/28 03:35:44;;;;;;;6.53;2.40;;;;;;;;;;5013161;28;20447;-73
2022/08/28 03:38:10;;;;;;;8.40;2.47;;;;;;;;;;5010821;28;20045;-73
2022/08/28 03:40:45;;;;;;;5.53;2.67;;;;;;;;;;4995219;28;20058;-72
2022/08/28 03:43:14;;;;;;;6.10;2.65;;;;;;;;;;4995544;28;20054;-74
2022/08/28 03:45:40;;;;;;;8.77;2.60;;;;;;;;;;5014300;28;20136;-73
2022/08/28 03:48:07;;;;;;;6.28;2.80;;;;;;;;;;5014188;28;20077;-74
2022/08/28 03:50:34;;;;;;;7.72;2.65;;;;;;;;;;4996370;28;20054;-73
2022/08/28 03:53:00;;;;;;;5.68;2.67;;;;;;;;;;5010838;28;20033;-73
2022/08/28 03:55:25;;;;;;;6.75;2.50;;;;;;;;;;5010008;28;20052;-74
2022/08/28 03:57:51;;;;;;;6.07;2.50;;;;;;;;;;5010891;28;20065;-72
2022/08/28 04:00:19;;;;;;;6.03;2.65;;;;;;;;;;5005939;28;20058;-74
2022/08/28 04:02:45;;;;;;;7.63;2.70;;;;;;;;;;4991171;28;20101;-74
2022/08/28 04:05:11;;;;;;;8.63;2.95;;;;;;;;;;4990758;28;20063;-74
2022/08/28 04:07:38;;;;;;;8.23;3.38;;;;;;;;;;4973780;28;20049;-72
2022/08/28 04:10:05;;;;;;;5.40;2.70;;;;;;;;;;5004036;28;20080;-74
2022/08/28 04:12:31;;;;;;;8.45;2.90;;;;;;;;;;5010536;28;20132;-73
2022/08/28 04:14:57;;;;;;;8.38;2.83;;;;;;;;;;5013031;28;20088;-76
2022/08/28 04:17:23;;;;;;;5.88;2.50;;;;;;;;;;5007627;28;20050;-73
2022/08/28 04:19:53;;;;;;;7.40;2.60;;;;;;;;;;4991053;28;20054;-73
2022/08/28 04:22:19;;;;;;;9.50;2.95;;;;;;;;;;4973688;28;20058;-73
2022/08/28 04:24:45;;;;;;;4.55;2.65;;;;;;;;;;4990154;28;20046;-72
2022/08/28 04:27:11;;;;;;;6.32;2.63;;;;;;;;;;4991148;28;20558;-73
2022/08/28 04:29:36;;;;;;;5.55;2.75;;;;;;;;;;4994453;28;20062;-73
2022/08/28 04:32:02;;;;;;;6.22;2.50;;;;;;;;;;4991658;28;20113;-72
2022/08/28 04:34:28;;;;;;;7.82;2.90;;;;;;;;;;4992820;28;20054;-76
2022/08/28 04:36:54;;;;;;;5.38;2.72;;;;;;;;;;4992152;28;20137;-75
2022/08/28 04:39:20;;;;;;;7.07;2.53;;;;;;;;;;4992024;28;20058;-73
2022/08/28 04:41:46;;;;;;;6.43;2.50;;;;;;;;;;4991962;28;20085;-74
2022/08/28 04:44:12;;;;;;;4.03;2.50;;;;;;;;;;4991330;28;20073;-72
2022/08/28 04:46:37;;;;;;;4.32;2.55;;;;;;;;;;4991698;28;20092;-72
2022/08/28 04:49:04;;;;;;;7.63;2.80;;;;;;;;;;4991152;28;20050;-73
2022/08/28 04:51:31;;;;;;;3.95;2.38;;;;;;;;;;4992133;28;20046;-75
2022/08/28 04:53:57;;;;;;;7.07;2.65;;;;;;;;;;5009749;28;20148;-72
2022/08/28 04:56:25;;;;;;;6.55;2.70;;;;;;;;;;5011189;28;20053;-73
2022/08/28 04:58:51;;;;;;;5.50;2.33;;;;;;;;;;5010970;28;20128;-72
2022/08/28 05:01:20;;;;;;;5.80;2.80;;;;;;;;;;5010732;28;20129;-72
2022/08/28 05:03:47;;;;;;;4.90;2.45;;;;;;;;;;5010266;28;20076;-74
2022/08/28 05:06:14;;;;;;;8.73;2.60;;;;;;;;;;5010264;28;20046;-74
2022/08/28 05:08:41;;;;;;;6.72;2.40;;;;;;;;;;5006086;28;20515;-74
2022/08/28 05:11:20;;;;;;;5.68;2.35;;;;;;;;;;4994378;28;20129;-74
2022/08/28 05:13:47;;;;;;;4.60;2.90;;;;;;;;;;4994847;28;20050;-75
2022/08/28 05:16:15;;;;;;;8.20;2.88;;;;;;;;;;4993815;28;20745;-72
2022/08/28 05:18:41;;;;;;;7.10;2.60;;;;;;;;;;4994267;28;20051;-72
2022/08/28 05:21:20;;;;;;;5.40;2.70;;;;;;;;;;4994439;28;20054;-73
2022/08/28 05:23:53;;;;;;;9.48;2.72;;;;;;;;;;4992663;28;20069;-72
2022/08/28 05:26:19;;;;;;;5.75;2.65;;;;;;;;;;4994156;28;20069;-74
2022/08/28 05:28:46;;;;;;;6.70;2.60;;;;;;;;;;4995402;28;20046;-72
2022/08/28 05:31:18;;;;;;;5.45;2.75;;;;;;;;;;4995705;28;20137;-74
2022/08/28 05:33:46;;;;;;;5.10;2.50;;;;;;;;;;4993957;28;20054;-73
2022/08/28 05:36:12;;;;;;;8.00;2.72;;;;;;;;;;4976442;28;20050;-73
2022/08/28 05:38:38;;;;;;;6.35;2.67;;;;;;;;;;4975505;28;20890;-74
2022/08/28 05:41:05;;;;;;;5.13;2.45;;;;;;;;;;4993256;28;20054;-73
2022/08/28 05:43:31;;;;;;;5.43;2.50;;;;;;;;;;4994741;28;20054;-73
2022/08/28 05:46:00;;;;;;;6.40;2.80;;;;;;;;;;4993993;28;20061;-72
2022/08/28 05:48:30;;;;;;;5.35;2.78;;;;;;;;;;4995495;28;20054;-72
2022/08/28 05:51:07;;;;;;;7.32;2.70;;;;;;;;;;4998037;28;20065;-74
2022/08/28 05:53:40;;;;;;;5.47;2.63;;;;;;;;;;5014967;28;20579;-72
2022/08/28 05:56:14;;;;;;;6.32;2.50;;;;;;;;;;4997610;28;20408;-73
2022/08/28 05:58:40;;;;;;;5.28;2.65;;;;;;;;;;5014564;28;20140;-74
2022/08/28 06:01:12;;;;;;;7.68;2.70;;;;;;;;;;5012035;28;20057;-72
2022/08/28 06:03:40;;;;;;;7.78;3.10;;;;;;;;;;5012781;28;20069;-72
2022/08/28 06:06:08;;;;;;;7.78;2.63;;;;;;;;;;4996163;28;20054;-72
2022/08/28 06:08:35;;;;;;;6.55;2.45;;;;;;;;;;4995625;28;20050;-74
2022/08/28 06:11:02;;;;;;;4.72;2.33;;;;;;;;;;5012696;28;20066;-73
2022/08/28 06:13:28;;;;;;;10.98;2.63;;;;;;;;;;4993422;28;20125;-72
2022/08/28 06:15:55;;;;;;;5.03;2.80;;;;;;;;;;4994639;28;20058;-71
2022/08/28 06:18:21;;;;;;;6.13;2.90;;;;;;;;;;4996610;28;20046;-74
2022/08/28 06:20:48;;;;;;;4.65;2.70;;;;;;;;;;4994692;28;20435;-72
2022/08/28 06:23:17;;;;;;;5.75;2.83;;;;;;;;;;4993231;28;20400;-73
2022/08/28 06:25:47;;;;;;;3.25;2.63;;;;;;;;;;4993150;28;20097;-75
2022/08/28 06:28:18;;;;;;;6.93;3.00;;;;;;;;;;4993175;28;20070;-75
2022/08/28 06:30:44;;;;;;;7.55;2.95;;;;;;;;;;4993069;28;20101;-75
2022/08/28 06:33:11;;;;;;;5.13;2.25;;;;;;;;;;4996116;28;20043;-75
2022/08/28 06:35:42;;;;;;;7.72;2.58;;;;;;;;;;5013644;28;20046;-72
2022/08/28 06:38:08;;;;;;;5.60;2.75;;;;;;;;;;5013637;28;20045;-74
2022/08/28 06:40:42;;;;;;;7.22;3.13;;;;;;;;;;5014373;28;20384;-73
2022/08/28 06:43:09;;;;;;;7.47;2.40;;;;;;;;;;5015658;28;20128;-78
2022/08/28 06:45:39;;;;;;;3.95;2.50;;;;;;;;;;5013248;28;20241;-74
2022/08/28 06:48:06;;;;;;;5.45;2.13;;;;;;;;;;5012229;28;20081;-74
2022/08/28 06:50:32;;;;;;;5.72;2.63;;;;;;;;;;4989669;28;20121;-72
2022/08/28 06:52:58;;;;;;;5.63;2.63;;;;;;;;;;4993219;28;21144;-73
2022/08/28 06:55:24;;;;;;;6.68;2.55;;;;;;;;;;4992165;28;20050;-74
2022/08/28 06:57:50;;;;;;;6.03;2.80;;;;;;;;;;4992552;28;20073;-74
2022/08/28 07:00:16;;;;;;;6.75;3.53;;;;;;;;;;4992421;28;20149;-72
2022/08/28 07:02:42;;;;;;;6.75;3.40;;;;;;;;;;5004744;28;20077;-74
2022/08/28 07:05:08;;;;;;;7.57;3.00;;;;;;;;;;4995429;28;20042;-74
2022/08/28 07:07:34;;;;;;;5.82;2.40;;;;;;;;;;5005532;28;20208;-75
2022/08/28 07:10:00;;;;;;;7.97;2.80;;;;;;;;;;4974176;28;20058;-74
2022/08/28 07:12:26;;;;;;;6.07;2.80;;;;;;;;;;4993367;28;20047;-74
2022/08/28 07:14:51;;;;;;;7.28;2.60;;;;;;;;;;4993536;28;20126;-74
2022/08/28 07:17:17;;;;;;;7.85;2.90;;;;;;;;;;4993021;28;20047;-74
2022/08/28 07:19:43;;;;;;;4.45;2.55;;;;;;;;;;4993398;28;20053;-73
2022/08/28 07:22:09;;;;;;;9.85;2.80;;;;;;;;;;4992571;28;20448;-75
2022/08/28 07:24:35;;;;;;;9.23;2.80;;;;;;;;;;4992425;28;20051;-74
2022/08/28 07:27:01;;;;;;;6.47;2.78;;;;;;;;;;4991830;28;20054;-74
2022/08/28 07:29:27;;;;;;;7.15;2.80;;;;;;;;;;4992725;28;20042;-74
2022/08/28 07:31:55;;;;;;;8.23;2.55;;;;;;;;;;4991509;28;20065;-75
2022/08/28 07:34:22;;;;;;;5.63;2.88;;;;;;;;;;4992226;28;20054;-73
2022/08/28 07:36:50;;;;;;;6.38;3.03;;;;;;;;;;4991955;28;20047;-73
2022/08/28 07:39:16;;;;;;;10.80;3.22;;;;;;;;;;4993393;28;20109;-75
2022/08/28 07:41:45;;;;;;;8.32;3.30;;;;;;;;;;4992068;28;20463;-74
2022/08/28 07:47:02;;;;;;;8.10;3.00;;;;;;;;;;4993039;28;20133;-73
2022/08/28 07:49:30;;;;;;;7.10;2.67;;;;;;;;;;4994448;28;20057;-75
2022/08/28 07:51:56;;;;;;;6.38;2.78;;;;;;;;;;5012278;28;20503;-73
2022/08/28 07:54:23;;;;;;;5.35;2.50;;;;;;;;;;5013372;28;20049;-74
2022/08/28 07:56:49;;;;;;;7.65;2.55;;;;;;;;;;5014340;28;20045;-74
2022/08/28 07:59:16;;;;;;;5.85;2.70;;;;;;;;;;5000646;28;20096;-73
2022/08/28 08:01:44;;;;;;;6.07;2.47;;;;;;;;;;4991458;28;20062;-75
2022/08/28 08:04:12;;;;;;;6.20;3.08;;;;;;;;;;4991486;28;20046;-75
2022/08/28 08:06:39;;;;;;;6.53;2.60;;;;;;;;;;4993128;28;20050;-74
2022/08/28 08:09:07;;;;;;;10.82;2.70;;;;;;;;;;5014272;28;20054;-79
2022/08/28 08:11:34;;;;;;;6.85;2.53;;;;;;;;;;5014201;28;20518;-77
2022/08/28 08:14:04;;;;;;;3.47;2.20;;;;;;;;;;5012824;28;20053;-76
2022/08/28 08:16:33;;;;;;;7.35;2.40;;;;;;;;;;5013197;28;20046;-77
2022/08/28 08:19:00;;;;;;;6.85;2.60;;;;;;;;;;5015329;28;20114;-76
2022/08/28 08:21:26;;;;;;;8.13;2.78;;;;;;;;;;5014800;28;20101;-78
2022/08/28 08:23:53;;;;;;;6.35;2.50;;;;;;;;;;5013677;28;20046;-79
2022/08/28 08:26:22;;;;;;;9.70;2.80;;;;;;;;;;5013622;28;20049;-79
2022/08/28 08:28:49;;;;;;;7.63;2.80;;;;;;;;;;4996867;28;20050;-78
2022/08/28 08:31:21;;;;;;;4.15;2.20;;;;;;;;;;5013641;28;20388;-74
2022/08/28 08:33:50;;;;;;;7.65;2.60;;;;;;;;;;4977317;28;20415;-76
2022/08/28 08:36:18;;;;;;;6.88;2.42;;;;;;;;;;4990866;28;20137;-72
2022/08/28 08:38:45;;;;;;;5.72;2.60;;;;;;;;;;4991760;28;20055;-75
2022/08/28 08:41:19;;;;;;;9.32;2.55;;;;;;;;;;4992128;28;20134;-75
2022/08/28 08:44:14;;;;;;;9.80;2.78;;;;;;;;;;4996305;28;20046;-76
2022/08/28 08:47:06;;;;;;;6.13;2.63;;;;;;;;;;5002937;28;20093;-80
2022/08/28 08:49:35;;;;;;;4.35;2.42;;;;;;;;;;5005715;28;20476;-79
2022/08/28 08:52:10;;;;;;;6.63;2.55;;;;;;;;;;5024041;28;20042;-79
2022/08/28 08:54:40;;;;;;;8.77;2.92;;;;;;;;;;5023650;28;20109;-77
2022/08/28 08:57:10;;;;;;;8.80;2.70;;;;;;;;;;5005660;28;20093;-78
2022/08/28 08:59:37;;;;;;;6.20;2.30;;;;;;;;;;5007923;28;20072;-79
2022/08/28 09:02:12;;;;;;;7.38;2.42;;;;;;;;;;5021989;28;20353;-75
2022/08/28 09:04:55;;;;;;;4.43;2.50;;;;;;;;;;5016066;28;20053;-75
2022/08/28 09:07:28;;;;;;;4.82;2.28;;;;;;;;;;5012956;28;20108;-74
2022/08/28 09:09:56;;;;;;;5.95;2.35;;;;;;;;;;5015030;28;20330;-76
2022/08/28 09:12:28;;;;;;;6.65;2.20;;;;;;;;;;5014317;28;20355;-76
2022/08/28 09:15:08;;;;;;;8.00;2.65;;;;;;;;;;5014277;28;20061;-74
2022/08/28 09:17:49;;;;;;;6.57;2.33;;;;;;;;;;5015648;28;20049;-76
2022/08/28 09:20:19;;;;;;;8.65;2.50;;;;;;;;;;5017752;28;20088;-76
2022/08/28 09:22:47;;;;;;;12.57;2.58;;;;;;;;;;5016188;28;20488;-73
2022/08/28 09:25:53;;;;;;;9.18;2.50;;;;;;;;;;4995535;28;20116;-75
2022/08/28 09:28:30;;;;;;;8.52;2.80;;;;;;;;;;4994954;28;20113;-74
2022/08/28 09:31:14;;;;;;;5.20;2.45;;;;;;;;;;4994029;28;20162;-74
2022/08/28 09:33:45;;;;;;;11.57;2.53;;;;;;;;;;4994394;28;20058;-75
2022/08/28 09:36:22;;;;;;;5.75;2.30;;;;;;;;;;4994236;28;20500;-74
2022/08/28 09:39:13;;;;;;;6.93;2.60;;;;;;;;;;4994457;28;20415;-72
2022/08/28 09:44:50;;;;;;;7.95;2.60;;;;;;;;;;4995431;28;20435;-73
2022/08/28 09:47:37;;;;;;;10.85;2.75;;;;;;;;;;4996033;28;20050;-74
2022/08/28 09:50:24;;;;;;;5.72;2.72;;;;;;;;;;5004715;28;20077;-75
2022/08/28 09:52:52;;;;;;;7.00;2.60;;;;;;;;;;5013460;28;20123;-75
2022/08/28 09:55:32;;;;;;;9.32;2.72;;;;;;;;;;5013401;28;20513;-74
2022/08/28 09:57:58;;;;;;;12.60;2.70;;;;;;;;;;4979761;28;20132;-73
2022/08/28 10:00:24;;;;;;;4.38;2.42;;;;;;;;;;5013930;28;20057;-75
2022/08/28 10:02:57;;;;;;;7.72;2.65;;;;;;;;;;5013526;28;20050;-74
2022/08/28 10:05:50;;;;;;;6.82;2.28;;;;;;;;;;4995459;28;20500;-73
2022/08/28 10:08:24;;;;;;;7.18;2.25;;;;;;;;;;5012305;28;20121;-77
2022/08/28 10:10:57;;;;;;;7.65;2.00;;;;;;;;;;5012584;28;20132;-76
2022/08/28 10:13:37;;;;;;;4.78;2.10;;;;;;;;;;5012751;28;20042;-73
2022/08/28 10:16:24;;;;;;;3.92;1.98;;;;;;;;;;4994731;28;20050;-74
2022/08/28 10:19:09;;;;;;;7.15;2.17;;;;;;;;;;4993085;28;20148;-75
2022/08/28 10:21:48;;;;;;;;;;;;;;;;;;4993589;28;20050;-72
2022/08/28 10:24:25;;;;;;;7.28;2.08;;;;;;;;;;4993452;28;19929;-76
2022/08/28 10:27:34;;;;;;;6.35;1.90;;;;;;;;;;4992275;28;20058;-74
2022/08/28 10:30:12;;;;;;;6.88;1.92;;;;;;;;;;4895070;29;20135;-75
2022/08/28 10:32:59;;;;;;;9.02;2.22;;;;;;;;;;4910054;29;20076;-73
2022/08/28 10:35:51;;;;;;;3.63;1.75;;;;;;;;;;4913313;29;20060;-73
2022/08/28 10:38:31;;;;;;;6.07;2.08;;;;;;;;;;4913039;29;20083;-73
2022/08/28 10:41:15;;;;;;;4.03;1.63;;;;;;;;;;4912655;29;20060;-76
2022/08/28 10:43:46;;;;;;;3.58;1.75;;;;;;;;;;4913889;29;20054;-75
2022/08/28 10:46:26;;;;;;;4.57;1.77;;;;;;;;;;4913813;29;20097;-74
2022/08/28 10:49:14;;;;;;;4.53;1.60;;;;;;;;;;4890323;29;20088;-73
2022/08/28 10:51:47;;;;;;;7.53;2.10;;;;;;;;;;4913932;29;20507;-74
2022/08/28 10:54:29;;;;;;;5.72;1.80;;;;;;;;;;4913442;29;20047;-76
2022/08/28 10:57:25;;;;;;;7.03;1.90;;;;;;;;;;4914597;29;20418;-76
2022/08/28 10:59:52;;;;;;;6.72;1.90;;;;;;;;;;4915531;29;20056;-74
2022/08/28 11:02:21;;;;;;;5.75;1.75;;;;;;;;;;4916258;29;20136;-75
2022/08/28 11:04:48;;;;;;;4.07;2.03;;;;;;;;;;4895700;29;20045;-75
2022/08/28 11:07:25;;;;;;;3.78;1.65;;;;;;;;;;4984800;28;20480;-75
2022/08/28 11:09:51;;;;;;;5.85;2.22;;;;;;;;;;5014010;28;20046;-74
2022/08/28 11:12:17;;;;;;;7.00;2.10;;;;;;;;;;5012885;28;20424;-76
2022/08/28 11:14:45;;;;;;;9.57;2.10;;;;;;;;;;5013064;28;20044;-75
2022/08/28 11:17:20;;;;;;;6.00;2.00;;;;;;;;;;5014439;28;20076;-76
2022/08/28 11:20:08;;;;;;;4.65;1.80;;;;;;;;;;4999172;28;20132;-73
2022/08/28 11:22:40;;;;;;;5.53;2.10;;;;;;;;;;5006715;28;20050;-74
2022/08/28 11:25:28;;;;;;;6.78;2.15;;;;;;;;;;4991542;28;20059;-77
2022/08/28 11:28:16;;;;;;;6.25;2.40;;;;;;;;;;5002596;28;20042;-78
2022/08/28 11:30:47;;;;;;;7.25;2.30;;;;;;;;;;5000521;28;20042;-75
2022/08/28 11:33:43;;;;;;;6.82;2.15;;;;;;;;;;4992577;28;20384;-76
2022/08/28 11:36:11;;;;;;;4.90;1.92;;;;;;;;;;4991614;28;20069;-75
2022/08/28 11:38:40;;;;;;;6.88;2.28;;;;;;;;;;4992530;28;20117;-75
2022/08/28 11:41:23;;;;;;;4.90;1.90;;;;;;;;;;4992968;28;20065;-74
2022/08/28 11:43:53;;;;;;;5.07;2.00;;;;;;;;;;4975420;28;20050;-75
2022/08/28 11:46:26;;;;;;;7.22;4.28;;;;;;;;;;4992223;28;20424;-73
2022/08/28 11:48:56;;;;;;;4.93;1.75;;;;;;;;;;5001079;28;20082;-75
2022/08/28 11:51:40;;;;;;;6.97;3.92;;;;;;;;;;5012611;28;20446;-77
2022/08/28 11:54:37;;;;;;;7.57;1.90;;;;;;;;;;4988569;28;20042;-75
2022/08/28 11:57:13;;;;;;;5.60;2.20;;;;;;;;;;4993145;28;20058;-76
2022/08/28 12:00:00;;;;;;;4.82;2.10;;;;;;;;;;4992397;28;20136;-75
2022/08/28 12:02:42;;;;;;;8.52;2.25;;;;;;;;;;4991962;28;20188;-78
2022/08/28 12:05:31;;;;;;;4.28;2.17;;;;;;;;;;4991799;28;20129;-75
2022/08/28 12:08:00;;;;;;;4.35;2.25;;;;;;;;;;4991920;28;20072;-76
2022/08/28 12:10:26;;;;;;;8.70;3.30;;;;;;;;;;4991579;28;20436;-76
2022/08/28 12:13:03;;;;;;;5.22;2.03;;;;;;;;;;4992165;28;20121;-77
2022/08/28 12:15:30;;;;;;;4.68;2.03;;;;;;;;;;4993998;28;20064;-75
2022/08/28 12:17:57;;;;;;;5.30;1.90;;;;;;;;;;5012258;28;20050;-75
2022/08/28 12:20:57;;;;;;;6.93;1.90;;;;;;;;;;5013053;28;20058;-74
2022/08/28 12:23:40;;;;;;;4.80;2.08;;;;;;;;;;5011303;28;20119;-75
2022/08/28 12:26:18;;;;;;;6.53;2.42;;;;;;;;;;5011723;28;20109;-74
2022/08/28 12:28:58;;;;;;;7.18;2.10;;;;;;;;;;5002639;28;20151;-74
2022/08/28 12:34:48;;;;;;;4.95;1.90;;;;;;;;;;4991907;28;20658;-74
2022/08/28 12:37:26;;;;;;;7.85;2.58;;;;;;;;;;4985131;28;20059;-76
2022/08/28 12:39:55;;;;;;;8.40;2.00;;;;;;;;;;4992247;28;20084;-75
2022/08/28 12:42:25;;;;;;;5.43;2.03;;;;;;;;;;4993478;28;20053;-74
2022/08/28 12:44:51;;;;;;;4.47;1.70;;;;;;;;;;5007744;28;20085;-76
2022/08/28 12:47:21;;;;;;;4.88;1.70;;;;;;;;;;5011505;28;20125;-74
2022/08/28 12:49:47;;;;;;;4.25;1.80;;;;;;;;;;5011104;28;20375;-72
2022/08/28 12:52:20;;;;;;;5.35;1.70;;;;;;;;;;5013303;28;20068;-75
2022/08/28 12:54:48;;;;;;;5.13;2.00;;;;;;;;;;5011322;28;20042;-75
2022/08/28 12:57:17;;;;;;;4.80;1.73;;;;;;;;;;5011891;28;20042;-74
2022/08/28 12:59:49;;;;;;;4.95;2.08;;;;;;;;;;5013752;28;20060;-72
2022/08/28 13:02:32;;;;;;;5.03;2.13;;;;;;;;;;5018511;28;20147;-73
2022/08/28 13:05:05;;;;;;;4.70;2.00;;;;;;;;;;5013465;28;20046;-74
2022/08/28 13:07:35;;;;;;;5.65;1.83;;;;;;;;;;5012005;28;20046;-76
2022/08/28 13:10:24;;;;;;;6.35;2.05;;;;;;;;;;5012626;28;20053;-76
2022/08/28 13:12:57;;;;;;;5.35;2.30;;;;;;;;;;5012542;28;20514;-76
2022/08/28 13:15:42;;;;;;;;;;;;;;;;;;5012603;28;20050;-76
2022/08/28 13:18:08;;;;;;;5.90;1.73;;;;;;;;;;5006884;28;19921;-78
2022/08/28 13:20:36;;;;;;;4.93;1.67;;;;;;;;;;4992203;28;20054;-76
2022/08/28 13:23:03;;;;;;;5.50;1.73;;;;;;;;;;5010584;28;20096;-76
2022/08/28 13:25:36;;;;;;;4.85;1.67;;;;;;;;;;5010396;28;20062;-77
2022/08/28 13:28:11;;;;;;;5.13;1.85;;;;;;;;;;5014353;28;20076;-78
2022/08/28 13:30:38;;;;;;;7.95;1.73;;;;;;;;;;5017229;28;20052;-77
2022/08/28 13:33:22;;;;;;;4.00;1.45;;;;;;;;;;5014753;28;20037;-77
2022/08/28 13:35:49;;;;;;;5.90;1.90;;;;;;;;;;5014290;28;20487;-74
2022/08/28 13:38:20;;;;;;;5.88;1.80;;;;;;;;;;5013426;28;20094;-74
2022/08/28 13:40:56;;;;;;;3.70;1.58;;;;;;;;;;5012470;28;20395;-75
2022/08/28 13:43:26;;;;;;;9.23;2.20;;;;;;;;;;5013409;28;20050;-76
2022/08/28 13:45:52;;;;;;;4.57;1.50;;;;;;;;;;5013571;28;20053;-74
2022/08/28 13:48:21;;;;;;;5.50;1.90;;;;;;;;;;4995872;28;20050;-75
2022/08/28 13:50:52;;;;;;;6.25;1.77;;;;;;;;;;5015236;28;20060;-76
2022/08/28 13:53:19;;;;;;;3.88;1.77;;;;;;;;;;5015056;28;20061;-74
2022/08/28 13:55:48;;;;;;;3.53;1.80;;;;;;;;;;5013526;28;20103;-76
2022/08/28 13:58:14;;;;;;;5.88;1.80;;;;;;;;;;5014944;28;20052;-76
2022/08/28 14:00:44;;;;;;;3.22;1.70;;;;;;;;;;5013833;28;20092;-77
2022/08/28 14:05:55;;;;;;;5.68;2.03;;;;;;;;;;5014499;28;20102;-76
2022/08/28 14:08:21;;;;;;;6.40;1.90;;;;;;;;;;5000844;28;20500;-77
2022/08/28 14:10:47;;;;;;;6.82;1.67;;;;;;;;;;4994994;28;20054;-76
2022/08/28 14:13:13;;;;;;;7.30;2.05;;;;;;;;;;5005762;28;20450;-77
2022/08/28 14:15:39;;;;;;;6.28;1.73;;;;;;;;;;5014825;28;20120;-76
2022/08/28 14:18:05;;;;;;;3.92;1.75;;;;;;;;;;5014999;28;20069;-76
2022/08/28 14:20:31;;;;;;;4.25;1.38;;;;;;;;;;4996574;28;20157;-77
2022/08/28 14:22:57;;;;;;;5.47;1.75;;;;;;;;;;4999092;28;20077;-78
2022/08/28 14:25:23;;;;;;;3.88;1.70;;;;;;;;;;5014487;28;20050;-75
2022/08/28 14:27:50;;;;;;;4.97;1.65;;;;;;;;;;5012006;28;20100;-68
2022/08/28 14:30:16;;;;;;;5.90;1.67;;;;;;;;;;5011003;28;20049;-69
2022/08/28 14:32:41;;;;;;;6.32;1.70;;;;;;;;;;5012723;28;20058;-70
2022/08/28 14:35:08;;;;;;;4.68;1.40;;;;;;;;;;4995376;28;20053;-69
2022/08/28 14:37:34;;;;;;;6.40;1.55;;;;;;;;;;5014228;28;20065;-69
2022/08/28 14:40:00;;;;;;;6.40;1.75;;;;;;;;;;4995033;28;20494;-70
2022/08/28 14:42:27;;;;;;;7.10;1.65;;;;;;;;;;5008757;28;20049;-68
2022/08/28 14:44:53;;;;;;;5.47;1.65;;;;;;;;;;5012552;28;20500;-68
2022/08/28 14:47:19;;;;;;;6.00;1.75;;;;;;;;;;5007441;28;20050;-68
2022/08/28 14:49:45;;;;;;;8.05;1.70;;;;;;;;;;4994901;28;20050;-68
2022/08/28 14:52:11;;;;;;;5.93;1.70;;;;;;;;;;5012053;28;20053;-70
2022/08/28 14:54:39;;;;;;;11.10;1.73;;;;;;;;;;4994066;28;20137;-69
2022/08/28 14:57:05;;;;;;;3.55;1.30;;;;;;;;;;5012355;28;20538;-69
2022/08/28 14:59:32;;;;;;;5.68;1.80;;;;;;;;;;5012715;28;20053;-70
2022/08/28 15:02:00;;;;;;;4.55;1.75;;;;;;;;;;5011855;28;20062;-69
2022/08/28 15:04:33;;;;;;;6.30;1.70;;;;;;;;;;4983190;28;20455;-69
2022/08/28 15:07:01;;;;;;;3.17;1.50;;;;;;;;;;4994841;28;20097;-70
2022/08/28 15:09:27;;;;;;;6.13;1.45;;;;;;;;;;4993876;28;20189;-69
2022/08/28 15:11:53;;;;;;;3.58;1.20;;;;;;;;;;4993920;28;20047;-70
2022/08/28 15:14:19;;;;;;;3.45;1.30;;;;;;;;;;4993078;28;20054;-70
2022/08/28 15:16:46;;;;;;;5.20;1.45;;;;;;;;;;4993697;28;20149;-70